createdAt,value
2019-01-11T00:02:14.666Z,5.90
2019-01-11T00:04:46.570Z,5.80
2019-01-11T00:07:15.463Z,4.97
2019-01-11T00:09:44.388Z,5.40
2019-01-11T00:12:14.440Z,5.33
2019-01-11T00:14:44.533Z,5.65
2019-01-11T00:17:14.634Z,8.90
2019-01-11T00:19:43.843Z,6.15
2019-01-11T00:22:12.825Z,6.50
2019-01-11T00:24:41.731Z,7.00
2019-01-11T00:27:10.867Z,7.08
2019-01-11T00:29:39.928Z,6.78
2019-01-11T00:32:08.757Z,7.00
2019-01-11T00:34:37.738Z,6.33
2019-01-11T00:37:06.850Z,8.43
2019-01-11T00:39:36.168Z,7.22
2019-01-11T00:42:05.525Z,7.75
2019-01-11T00:44:34.640Z,7.37
2019-01-11T00:47:03.618Z,7.15
2019-01-11T00:49:32.416Z,6.72
2019-01-11T00:52:01.368Z,8.80
2019-01-11T00:54:30.284Z,6.60
2019-01-11T00:57:01.275Z,8.73
2019-01-11T00:59:30.083Z,8.95
2019-01-11T01:01:58.955Z,7.70
2019-01-11T01:04:28.068Z,8.95
2019-01-11T01:06:56.971Z,6.33
2019-01-11T01:09:25.916Z,8.00
2019-01-11T01:11:54.971Z,9.20
2019-01-11T01:14:23.851Z,8.13
2019-01-11T01:16:52.647Z,7.10
2019-01-11T01:19:21.479Z,7.33
2019-01-11T01:21:50.279Z,9.20
2019-01-11T01:24:19.227Z,8.43
2019-01-11T01:26:49.477Z,9.63
2019-01-11T01:29:18.506Z,8.65
2019-01-11T01:31:47.438Z,8.80
2019-01-11T01:34:16.302Z,9.05
2019-01-11T01:36:45.457Z,8.90
2019-01-11T01:39:14.436Z,8.63
2019-01-11T01:41:43.607Z,8.38
2019-01-11T01:44:12.572Z,9.43
2019-01-11T01:46:41.555Z,11.80
2019-01-11T01:49:10.490Z,8.70
2019-01-11T01:51:39.373Z,8.95
2019-01-11T01:54:08.410Z,13.28
2019-01-11T01:56:38.829Z,12.20
2019-01-11T01:59:08.030Z,11.68
2019-01-11T02:01:36.942Z,10.55
2019-01-11T02:04:05.804Z,10.75
2019-01-11T02:06:34.681Z,12.50
2019-01-11T02:09:06.101Z,9.58
2019-01-11T02:11:34.917Z,10.80
2019-01-11T02:14:03.762Z,12.93
2019-01-11T02:16:32.763Z,10.00
2019-01-11T02:19:01.630Z,11.12
2019-01-11T02:21:30.582Z,11.90
2019-01-11T02:23:59.511Z,12.18
2019-01-11T02:26:28.317Z,12.05
2019-01-11T02:28:57.296Z,12.55
2019-01-11T02:31:26.257Z,12.67
2019-01-11T02:33:55.163Z,15.15
2019-01-11T02:36:23.954Z,12.75
2019-01-11T02:38:52.760Z,14.23
2019-01-11T02:41:21.624Z,16.20
2019-01-11T02:43:50.478Z,14.95
2019-01-11T02:46:19.411Z,14.58
2019-01-11T02:48:48.291Z,15.25
2019-01-11T02:51:17.154Z,13.25
2019-01-11T02:53:46.208Z,18.02
2019-01-11T02:56:15.001Z,16.50
2019-01-11T02:58:43.933Z,18.27
2019-01-11T03:01:12.701Z,23.15
2019-01-11T03:03:41.590Z,18.25
2019-01-11T03:06:10.499Z,20.48
2019-01-11T03:08:39.287Z,16.45
2019-01-11T03:11:08.070Z,19.57
2019-01-11T03:13:36.948Z,18.40
2019-01-11T03:16:05.837Z,20.08
2019-01-11T03:18:34.770Z,20.97
2019-01-11T03:21:03.653Z,22.62
2019-01-11T03:23:32.668Z,19.95
2019-01-11T03:26:01.550Z,20.97
2019-01-11T03:28:30.500Z,26.02
2019-01-11T03:31:03.085Z,24.72
2019-01-11T03:33:32.201Z,20.30
2019-01-11T03:36:00.988Z,22.90
2019-01-11T03:38:29.955Z,23.87
2019-01-11T03:40:58.841Z,25.15
2019-01-11T03:43:27.704Z,25.30
2019-01-11T03:45:56.503Z,21.75
2019-01-11T03:48:25.476Z,24.55
2019-01-11T03:50:54.411Z,24.40
2019-01-11T03:53:23.252Z,27.62
2019-01-11T03:55:52.165Z,26.45
2019-01-11T03:58:21.040Z,27.43
2019-01-11T04:00:49.876Z,23.45
2019-01-11T04:03:18.721Z,22.58
2019-01-11T04:05:47.521Z,25.23
2019-01-11T04:08:16.419Z,24.00
2019-01-11T04:10:45.286Z,24.25
2019-01-11T04:13:14.989Z,25.17
2019-01-11T04:15:43.936Z,25.43
2019-01-11T04:18:38.141Z,26.45
2019-01-11T04:21:07.120Z,23.85
2019-01-11T04:23:36.048Z,26.37
2019-01-11T04:26:05.051Z,28.60
2019-01-11T04:28:33.857Z,26.45
2019-01-11T04:31:02.861Z,27.30
2019-01-11T04:33:32.092Z,22.67
2019-01-11T04:36:00.877Z,27.32
2019-01-11T04:38:29.776Z,25.45
2019-01-11T04:40:58.585Z,22.17
2019-01-11T04:43:27.419Z,24.47
2019-01-11T04:45:56.210Z,22.42
2019-01-11T04:48:25.154Z,22.62
2019-01-11T04:50:54.097Z,22.32
2019-01-11T04:53:22.940Z,24.27
2019-01-11T04:55:51.979Z,22.55
2019-01-11T04:58:20.875Z,24.02
2019-01-11T05:00:49.850Z,24.77
2019-01-11T05:03:18.701Z,22.70
2019-01-11T05:05:47.682Z,23.38
2019-01-11T05:08:16.595Z,23.80
2019-01-11T05:10:45.491Z,21.95
2019-01-11T05:13:32.842Z,23.32
2019-01-11T05:16:01.740Z,22.17
2019-01-11T05:18:30.635Z,23.03
2019-01-11T05:20:59.571Z,21.77
2019-01-11T05:23:28.672Z,24.07
2019-01-11T05:25:57.672Z,24.07
2019-01-11T05:28:26.895Z,24.63
2019-01-11T05:30:56.488Z,28.87
2019-01-11T05:33:25.498Z,22.60
2019-01-11T05:35:54.445Z,23.65
2019-01-11T05:38:23.327Z,22.35
2019-01-11T05:40:52.305Z,23.57
2019-01-11T05:43:21.083Z,25.20
2019-01-11T05:45:56.268Z,20.60
2019-01-11T05:48:25.118Z,21.77
2019-01-11T05:50:53.982Z,21.02
2019-01-11T05:53:22.798Z,23.32
2019-01-11T05:55:52.949Z,24.15
2019-01-11T05:58:38.799Z,22.70
2019-01-11T06:01:08.014Z,27.58
2019-01-11T06:03:36.934Z,24.43
2019-01-11T06:06:06.401Z,24.15
2019-01-11T06:08:35.631Z,25.55
2019-01-11T06:11:05.020Z,25.20
2019-01-11T06:13:33.950Z,27.52
2019-01-11T06:16:02.968Z,24.20
2019-01-11T06:18:31.923Z,24.05
2019-01-11T06:21:00.889Z,23.57
2019-01-11T06:23:29.774Z,25.00
2019-01-11T06:25:59.056Z,22.85
2019-01-11T06:28:28.152Z,26.50
2019-01-11T06:30:59.047Z,27.27
2019-01-11T06:33:31.504Z,24.30
2019-01-11T06:36:00.349Z,25.20
2019-01-11T06:38:30.825Z,24.55
2019-01-11T06:40:59.788Z,23.15
2019-01-11T06:43:28.691Z,22.73
2019-01-11T06:45:57.835Z,25.80
2019-01-11T06:48:40.858Z,29.87
2019-01-11T06:51:10.056Z,23.80
2019-01-11T06:53:38.964Z,22.60
2019-01-11T06:56:07.984Z,22.65
2019-01-11T06:58:39.292Z,24.63
2019-01-11T07:01:10.034Z,20.72
2019-01-11T07:03:38.876Z,26.05
2019-01-11T07:06:07.796Z,26.02
2019-01-11T07:08:36.657Z,24.67
2019-01-11T07:11:05.772Z,18.90
2019-01-11T07:13:34.797Z,23.05
2019-01-11T07:16:03.751Z,23.40
2019-01-11T07:18:33.052Z,21.35
2019-01-11T07:21:01.915Z,17.67
2019-01-11T07:23:30.847Z,19.90
2019-01-11T07:25:59.683Z,18.20
2019-01-11T07:28:28.920Z,19.60
2019-01-11T07:31:04.161Z,21.00
2019-01-11T07:33:33.195Z,20.32
2019-01-11T07:36:24.327Z,21.27
2019-01-11T07:38:53.504Z,19.23
2019-01-11T07:41:22.616Z,14.85
2019-01-11T07:43:51.551Z,16.87
2019-01-11T07:46:20.473Z,18.25
2019-01-11T07:48:49.437Z,17.67
2019-01-11T07:51:18.439Z,18.10
2019-01-11T07:53:47.375Z,16.57
2019-01-11T07:56:16.168Z,16.37
2019-01-11T07:58:45.180Z,16.90
2019-01-11T08:01:14.047Z,17.12
2019-01-11T08:03:43.541Z,18.50
2019-01-11T08:06:12.841Z,17.80
2019-01-11T08:08:41.803Z,15.30
2019-01-11T08:11:10.778Z,15.23
2019-01-11T08:13:39.808Z,14.45
2019-01-11T08:16:09.232Z,14.67
2019-01-11T08:18:38.107Z,14.65
2019-01-11T08:21:07.371Z,14.80
2019-01-11T08:23:36.529Z,14.25
2019-01-11T08:26:08.216Z,15.00
2019-01-11T08:28:39.426Z,16.10
2019-01-11T08:31:08.372Z,13.03
2019-01-11T08:37:19.640Z,13.43
2019-01-11T08:39:48.558Z,12.98
2019-01-11T08:42:17.529Z,13.98
2019-01-11T08:44:46.342Z,15.58
2019-01-11T08:47:15.272Z,14.10
2019-01-11T08:49:44.241Z,12.90
2019-01-11T08:52:13.112Z,12.25
2019-01-11T08:54:41.911Z,11.00
2019-01-11T08:57:10.768Z,14.98
2019-01-11T08:59:41.906Z,12.65
2019-01-11T09:02:11.006Z,13.25
2019-01-11T09:04:39.814Z,10.58
2019-01-11T09:07:08.726Z,10.60
2019-01-11T09:09:37.555Z,12.33
2019-01-11T09:12:06.419Z,12.25
2019-01-11T09:14:54.329Z,12.80
2019-01-11T09:17:23.409Z,15.65
2019-01-11T09:19:52.256Z,14.87
2019-01-11T09:22:21.083Z,13.87
2019-01-11T09:24:49.886Z,12.58
2019-01-11T09:27:18.882Z,11.40
2019-01-11T09:29:48.835Z,13.25
2019-01-11T09:32:17.634Z,13.83
2019-01-11T09:34:46.519Z,13.75
2019-01-11T09:37:15.407Z,14.85
2019-01-11T09:39:44.203Z,16.70
2019-01-11T09:42:14.303Z,14.25
2019-01-11T09:44:43.210Z,12.80
2019-01-11T09:47:12.000Z,13.28
2019-01-11T09:49:40.864Z,12.45
2019-01-11T09:52:09.863Z,14.73
2019-01-11T09:54:38.682Z,11.50
2019-01-11T09:57:07.573Z,12.78
2019-01-11T09:59:36.621Z,13.98
2019-01-11T10:02:36.862Z,13.40
2019-01-11T10:05:08.255Z,14.03
2019-01-11T10:07:37.204Z,16.00
2019-01-11T10:10:08.668Z,13.55
2019-01-11T10:12:37.621Z,15.23
2019-01-11T10:15:07.492Z,13.65
2019-01-11T10:17:36.379Z,17.27
2019-01-11T10:20:06.699Z,17.37
2019-01-11T10:22:35.756Z,16.48
2019-01-11T10:25:05.972Z,15.87
2019-01-11T10:27:34.979Z,13.98
2019-01-11T10:30:05.692Z,14.33
2019-01-11T10:32:34.535Z,17.48
2019-01-11T10:35:03.435Z,19.50
2019-01-11T10:37:33.232Z,18.67
2019-01-11T10:40:02.338Z,18.45
2019-01-11T10:42:31.244Z,17.50
2019-01-11T10:45:00.872Z,21.40
2019-01-11T10:47:29.727Z,22.45
2019-01-11T10:49:58.554Z,16.82
2019-01-11T10:52:27.447Z,19.80
2019-01-11T10:54:56.282Z,17.77
2019-01-11T10:57:25.149Z,22.17
2019-01-11T10:59:53.965Z,18.00
2019-01-11T11:02:22.771Z,24.15
2019-01-11T11:04:51.662Z,21.30
2019-01-11T11:07:20.432Z,22.85
2019-01-11T11:09:49.264Z,19.17
2019-01-11T11:12:18.121Z,19.95
2019-01-11T11:14:50.053Z,18.95
2019-01-11T11:17:18.840Z,21.02
2019-01-11T11:19:47.627Z,15.95
2019-01-11T11:22:16.752Z,16.75
2019-01-11T11:24:45.789Z,16.35
2019-01-11T11:27:14.691Z,14.35
2019-01-11T11:29:43.524Z,16.42
2019-01-11T11:32:13.436Z,14.63
2019-01-11T11:34:44.957Z,19.17
2019-01-11T11:37:17.798Z,16.17
2019-01-11T11:39:46.787Z,12.78
2019-01-11T11:42:16.934Z,12.97
2019-01-11T11:44:45.928Z,13.62
2019-01-11T11:47:14.940Z,15.03
2019-01-11T11:49:43.724Z,15.68
2019-01-11T11:52:12.644Z,14.13
2019-01-11T11:54:41.547Z,16.67
2019-01-11T11:57:10.455Z,14.97
2019-01-11T11:59:39.341Z,12.60
2019-01-11T12:02:08.391Z,14.65
2019-01-11T12:04:37.264Z,15.35
2019-01-11T12:07:07.685Z,14.05
2019-01-11T12:09:36.875Z,13.80
2019-01-11T12:12:05.897Z,14.30
2019-01-11T12:14:34.962Z,11.45
2019-01-11T12:17:03.986Z,13.70
2019-01-11T12:19:33.043Z,13.95
2019-01-11T12:22:01.953Z,14.45
2019-01-11T12:27:11.864Z,12.63
2019-01-11T12:29:40.719Z,8.45
2019-01-11T12:32:09.496Z,10.48
2019-01-11T12:34:38.322Z,12.03
2019-01-11T12:37:07.126Z,11.40
2019-01-11T12:39:35.964Z,12.45
2019-01-11T12:42:04.902Z,11.85
2019-01-11T12:44:33.684Z,9.20
2019-01-11T12:47:02.525Z,10.50
2019-01-11T12:49:31.402Z,12.70
2019-01-11T12:52:00.292Z,15.60
2019-01-11T12:54:29.210Z,10.20
2019-01-11T12:56:58.023Z,12.17
2019-01-11T12:59:26.807Z,8.45
2019-01-11T13:01:55.784Z,11.68
2019-01-11T13:04:24.618Z,11.97
2019-01-11T13:06:53.579Z,11.53
2019-01-11T13:09:22.593Z,11.80
2019-01-11T13:11:51.502Z,12.07
2019-01-11T13:14:20.358Z,12.85
2019-01-11T13:16:49.317Z,12.37
2019-01-11T13:19:20.329Z,14.83
2019-01-11T13:21:51.636Z,12.60
2019-01-11T13:24:24.529Z,13.50
2019-01-11T13:26:53.447Z,13.45
2019-01-11T13:29:22.385Z,13.22
2019-01-11T13:31:51.178Z,13.08
2019-01-11T13:34:20.103Z,14.30
2019-01-11T13:36:53.853Z,10.90
2019-01-11T13:39:20.128Z,11.28
2019-01-11T13:41:49.148Z,11.45
2019-01-11T13:44:18.083Z,12.10
2019-01-11T13:46:46.908Z,10.68
2019-01-11T13:49:15.964Z,12.95
2019-01-11T13:51:44.932Z,11.10
2019-01-11T13:54:13.866Z,10.13
2019-01-11T13:56:42.796Z,10.25
2019-01-11T13:59:11.668Z,10.50
2019-01-11T14:01:40.525Z,9.78
2019-01-11T14:04:09.461Z,10.13
2019-01-11T14:06:38.693Z,13.40
2019-01-11T14:09:08.980Z,8.40
2019-01-11T14:11:38.107Z,10.15
2019-01-11T14:14:06.999Z,9.50
2019-01-11T14:16:36.178Z,8.18
2019-01-11T14:19:05.091Z,11.53
2019-01-11T14:21:33.972Z,7.72
2019-01-11T14:24:03.023Z,10.48
2019-01-11T14:26:32.001Z,9.48
2019-01-11T14:29:00.935Z,9.10
2019-01-11T14:31:33.358Z,9.20
2019-01-11T14:34:02.335Z,10.72
2019-01-11T14:36:31.302Z,10.20
2019-01-11T14:39:07.429Z,8.53
2019-01-11T14:41:38.414Z,7.10
2019-01-11T14:44:07.443Z,8.73
2019-01-11T14:46:36.601Z,6.67
2019-01-11T14:49:05.614Z,8.73
2019-01-11T14:51:34.638Z,8.23
2019-01-11T14:54:03.641Z,8.70
2019-01-11T14:56:32.493Z,8.00
2019-01-11T14:59:01.359Z,8.50
2019-01-11T15:01:30.223Z,9.23
2019-01-11T15:03:59.129Z,9.50
2019-01-11T15:06:28.060Z,9.57
2019-01-11T15:08:57.000Z,9.15
2019-01-11T15:11:25.857Z,9.73
2019-01-11T15:13:54.678Z,9.08
2019-01-11T15:16:23.546Z,10.07
2019-01-11T15:18:52.424Z,9.97
2019-01-11T15:21:21.324Z,10.58
2019-01-11T15:23:50.123Z,10.43
2019-01-11T15:26:19.006Z,11.40
2019-01-11T15:28:47.867Z,8.93
2019-01-11T15:31:16.711Z,10.77
2019-01-11T15:33:45.627Z,10.80
2019-01-11T15:36:20.192Z,11.50
2019-01-11T15:38:49.321Z,10.80
2019-01-11T15:41:18.239Z,12.15
2019-01-11T15:43:47.234Z,12.75
2019-01-11T15:46:16.291Z,11.48
2019-01-11T15:48:49.728Z,11.88
2019-01-11T15:51:21.650Z,11.55
2019-01-11T15:53:51.402Z,12.53
2019-01-11T15:56:30.798Z,9.93
2019-01-11T15:59:01.979Z,10.50
2019-01-11T16:01:33.339Z,10.33
2019-01-11T16:04:09.096Z,10.98
2019-01-11T16:06:40.551Z,9.00
2019-01-11T16:10:19.753Z,10.23
2019-01-11T16:13:26.671Z,9.40
2019-01-11T16:16:20.431Z,9.85
2019-01-11T16:18:50.266Z,7.97
2019-01-11T16:21:19.345Z,10.65
2019-01-11T16:23:48.233Z,10.20
2019-01-11T16:26:17.087Z,9.88
2019-01-11T16:28:46.136Z,9.45
2019-01-11T16:31:15.117Z,9.60
2019-01-11T16:33:45.920Z,10.28
2019-01-11T16:36:14.772Z,10.18
2019-01-11T16:38:43.677Z,10.43
2019-01-11T16:41:12.966Z,10.78
2019-01-11T16:43:41.923Z,12.45
2019-01-11T16:46:10.969Z,11.40
2019-01-11T16:48:39.915Z,12.60
2019-01-11T16:51:08.899Z,12.20
2019-01-11T16:53:37.751Z,11.73
2019-01-11T16:56:06.630Z,13.25
2019-01-11T16:58:35.623Z,15.18
2019-01-11T17:01:04.744Z,12.15
2019-01-11T17:03:33.669Z,13.28
2019-01-11T17:06:02.604Z,15.03
2019-01-11T17:08:31.694Z,12.70
2019-01-11T17:11:00.593Z,12.70
2019-01-11T17:13:29.571Z,16.60
2019-01-11T17:15:58.542Z,13.83
2019-01-11T17:18:27.430Z,13.80
2019-01-11T17:20:56.408Z,14.13
2019-01-11T17:23:25.511Z,12.28
2019-01-11T17:25:54.441Z,13.40
2019-01-11T17:28:23.367Z,12.80
2019-01-11T17:30:52.451Z,13.98
2019-01-11T17:33:21.240Z,14.35
2019-01-11T17:35:50.080Z,10.88
2019-01-11T17:38:19.064Z,10.35
2019-01-11T17:40:48.105Z,13.18
2019-01-11T17:43:17.355Z,13.80
2019-01-11T17:45:46.443Z,16.87
2019-01-11T17:48:15.425Z,14.78
2019-01-11T17:50:44.431Z,11.50
2019-01-11T17:53:13.362Z,12.13
2019-01-11T17:55:42.213Z,11.90
2019-01-11T17:58:11.045Z,10.60
2019-01-11T18:00:41.559Z,11.60
2019-01-11T18:03:10.548Z,10.73
2019-01-11T18:05:39.742Z,11.83
2019-01-11T18:08:11.053Z,11.03
2019-01-11T18:10:42.379Z,12.65
2019-01-11T18:13:11.322Z,8.28
2019-01-11T18:15:40.272Z,11.53
2019-01-11T18:18:09.293Z,8.98
2019-01-11T18:20:38.921Z,9.00
2019-01-11T18:23:07.876Z,12.73
2019-01-11T18:25:36.791Z,10.68
2019-01-11T18:28:05.801Z,10.63
2019-01-11T18:30:34.761Z,9.40
2019-01-11T18:33:03.812Z,8.43
2019-01-11T18:35:32.681Z,8.00
2019-01-11T18:38:01.841Z,8.00
2019-01-11T18:40:30.779Z,8.15
2019-01-11T18:42:59.877Z,9.00
2019-01-11T18:45:29.111Z,9.00
2019-01-11T18:47:58.156Z,10.32
2019-01-11T18:50:27.525Z,8.68
2019-01-11T18:52:56.338Z,8.77
2019-01-11T18:55:25.237Z,9.45
2019-01-11T18:57:54.123Z,8.63
2019-01-11T19:00:24.338Z,9.70
2019-01-11T19:02:53.213Z,9.03
2019-01-11T19:05:22.067Z,10.80
2019-01-11T19:07:51.064Z,11.20
2019-01-11T19:10:20.463Z,8.75
2019-01-11T19:12:49.543Z,10.82
2019-01-11T19:15:21.244Z,12.23
2019-01-11T19:17:51.960Z,10.48
2019-01-11T19:20:29.004Z,10.63
2019-01-11T19:22:58.802Z,10.75
2019-01-11T19:25:27.825Z,11.25
2019-01-11T19:27:56.734Z,13.38
2019-01-11T19:30:27.608Z,8.60
2019-01-11T19:32:56.743Z,10.85
2019-01-11T19:35:25.654Z,14.13
2019-01-11T19:37:54.781Z,8.43
2019-01-11T19:40:23.751Z,11.28
2019-01-11T19:42:55.696Z,14.00
2019-01-11T19:45:24.638Z,12.47
2019-01-11T19:47:53.673Z,15.40
2019-01-11T19:50:25.259Z,11.45
2019-01-11T19:52:54.177Z,15.03
2019-01-11T19:55:26.166Z,12.25
2019-01-11T19:57:55.195Z,12.55
2019-01-11T20:00:26.252Z,10.18
2019-01-11T20:02:55.467Z,14.80
2019-01-11T20:05:25.282Z,14.23
2019-01-11T20:07:54.740Z,11.18
2019-01-11T20:10:34.403Z,14.57
2019-01-11T20:13:03.384Z,16.12
2019-01-11T20:15:33.955Z,12.20
2019-01-11T20:18:03.710Z,13.25
2019-01-11T20:20:32.728Z,8.58
2019-01-11T20:23:02.481Z,14.20
2019-01-11T20:25:31.886Z,14.98
2019-01-11T20:28:00.914Z,15.18
2019-01-11T20:30:30.361Z,14.07
2019-01-11T20:32:59.423Z,19.17
2019-01-11T20:35:34.582Z,16.75
2019-01-11T20:38:03.586Z,17.85
2019-01-11T20:40:32.938Z,20.00
2019-01-11T20:43:03.538Z,15.25
2019-01-11T20:45:32.447Z,18.98
2019-01-11T20:48:01.345Z,17.15
2019-01-11T20:50:30.248Z,14.93
2019-01-11T20:52:59.230Z,20.20
2019-01-11T20:55:28.102Z,17.02
2019-01-11T20:57:57.256Z,16.97
2019-01-11T21:00:35.838Z,20.85
2019-01-11T21:03:06.966Z,16.50
2019-01-11T21:05:35.953Z,19.67
2019-01-11T21:08:05.153Z,18.42
2019-01-11T21:10:34.129Z,15.78
2019-01-11T21:13:03.080Z,17.80
2019-01-11T21:15:31.952Z,16.82
2019-01-11T21:18:01.195Z,20.20
2019-01-11T21:20:30.354Z,19.98
2019-01-11T21:22:59.265Z,22.58
2019-01-11T21:25:28.046Z,21.73
2019-01-11T21:27:58.610Z,22.98
2019-01-11T21:30:37.351Z,26.97
2019-01-11T21:33:06.492Z,23.45
2019-01-11T21:35:35.808Z,22.35
2019-01-11T21:38:07.560Z,20.17
2019-01-11T21:40:36.716Z,21.75
2019-01-11T21:43:05.680Z,21.27
2019-01-11T21:45:34.635Z,24.63
2019-01-11T21:48:05.960Z,26.10
2019-01-11T21:50:34.744Z,17.57
2019-01-11T21:53:03.988Z,27.73
2019-01-11T21:55:32.882Z,27.90
2019-01-11T21:58:01.823Z,25.40
2019-01-11T22:00:33.668Z,28.87
2019-01-11T22:03:02.480Z,25.12
2019-01-11T22:05:31.573Z,25.57
2019-01-11T22:08:00.513Z,24.80
2019-01-11T22:10:29.542Z,23.67
2019-01-11T22:12:58.425Z,27.10
2019-01-11T22:15:27.413Z,23.35
2019-01-11T22:17:56.267Z,33.35
2019-01-11T22:20:25.292Z,23.35
2019-01-11T22:22:54.200Z,22.73
2019-01-11T22:25:23.191Z,23.50
2019-01-11T22:27:52.102Z,22.65
2019-01-11T22:30:22.342Z,27.87
2019-01-11T22:32:51.314Z,24.98
2019-01-11T22:35:20.385Z,27.17
2019-01-11T22:37:49.412Z,27.75
2019-01-11T22:40:20.264Z,28.77
2019-01-11T22:42:51.216Z,32.50
2019-01-11T22:45:20.220Z,29.25
2019-01-11T22:47:49.044Z,29.20
2019-01-11T22:50:18.099Z,22.35
2019-01-11T22:52:47.005Z,32.25
2019-01-11T22:55:16.533Z,27.85
2019-01-11T22:57:45.341Z,24.40
2019-01-11T23:01:03.311Z,30.90
2019-01-11T23:03:42.671Z,30.00
2019-01-11T23:06:40.268Z,27.85
2019-01-11T23:09:13.370Z,32.45
2019-01-11T23:11:57.523Z,26.07
2019-01-11T23:14:26.500Z,27.75
2019-01-11T23:17:31.707Z,32.75
2019-01-11T23:19:57.967Z,36.50
2019-01-11T23:22:27.211Z,33.65
2019-01-11T23:24:56.095Z,32.63
2019-01-11T23:27:27.124Z,27.10
2019-01-11T23:29:58.377Z,31.80
2019-01-11T23:32:27.366Z,36.17
2019-01-11T23:34:56.657Z,34.20
2019-01-11T23:37:25.588Z,33.90
2019-01-11T23:40:01.008Z,26.43
2019-01-11T23:42:29.927Z,40.35
2019-01-11T23:45:04.081Z,39.23
2019-01-11T23:47:44.961Z,32.57
2019-01-11T23:50:16.642Z,33.85
2019-01-11T23:52:45.716Z,30.10
2019-01-11T23:55:14.995Z,37.20
2019-01-11T23:57:46.527Z,29.10
